createdAt,value
2022-10-17T00:02:43.704Z,15.47
2022-10-17T00:07:49.117Z,12.97
2022-10-17T00:12:54.286Z,13.17
2022-10-17T00:18:00.643Z,14.77
2022-10-17T00:23:05.978Z,16.53
2022-10-17T00:28:13.612Z,15.10
2022-10-17T00:33:20.702Z,14.97
2022-10-17T00:38:28.263Z,15.47
2022-10-17T00:43:51.294Z,16.13
2022-10-17T00:48:59.240Z,14.80
2022-10-17T00:54:05.316Z,32.10
2022-10-17T00:59:12.709Z,19.80
2022-10-17T01:04:20.037Z,16.33
2022-10-17T01:09:28.674Z,15.63
2022-10-17T01:14:39.572Z,15.57
2022-10-17T01:20:07.219Z,14.57
2022-10-17T01:25:30.496Z,16.10
2022-10-17T01:30:59.114Z,17.17
2022-10-17T01:36:21.944Z,15.33
2022-10-17T01:41:30.099Z,15.83
2022-10-17T01:46:42.999Z,15.93
2022-10-17T01:51:52.759Z,16.00
2022-10-17T01:57:03.796Z,16.90
2022-10-17T02:02:12.161Z,21.03
2022-10-17T02:07:17.911Z,19.93
2022-10-17T02:12:46.583Z,14.13
2022-10-17T02:18:18.790Z,13.33
2022-10-17T02:23:45.026Z,13.93
2022-10-17T02:29:10.891Z,14.37
2022-10-17T02:34:24.773Z,14.03
2022-10-17T02:39:32.822Z,14.07
2022-10-17T02:44:41.546Z,14.70
2022-10-17T02:49:49.749Z,13.47
2022-10-17T02:54:57.952Z,14.87
2022-10-17T03:00:05.443Z,13.73
2022-10-17T03:05:12.972Z,15.97
2022-10-17T03:10:19.651Z,15.47
2022-10-17T03:15:25.984Z,13.33
2022-10-17T03:20:31.258Z,15.17
2022-10-17T03:25:36.539Z,16.23
2022-10-17T03:30:41.913Z,17.37
2022-10-17T03:35:47.272Z,20.53
2022-10-17T03:40:58.560Z,18.43
2022-10-17T03:46:05.344Z,15.77
2022-10-17T03:51:11.580Z,16.13
2022-10-17T03:56:19.319Z,16.67
2022-10-17T04:01:25.916Z,15.87
2022-10-17T04:06:32.891Z,16.53
2022-10-17T04:11:38.255Z,17.27
2022-10-17T04:16:43.486Z,19.60
2022-10-17T04:21:50.995Z,18.37
2022-10-17T04:26:56.284Z,16.80
2022-10-17T04:32:04.797Z,18.83
2022-10-17T04:37:11.681Z,19.37
2022-10-17T04:42:17.055Z,20.70
2022-10-17T04:47:25.591Z,18.43
2022-10-17T04:52:32.334Z,22.97
2022-10-17T04:57:40.126Z,28.30
2022-10-17T05:02:45.839Z,26.17
2022-10-17T05:07:52.177Z,25.93
2022-10-17T05:12:57.437Z,24.17
2022-10-17T05:18:07.075Z,23.23
2022-10-17T05:23:13.740Z,26.53
2022-10-17T05:28:18.850Z,20.83
2022-10-17T05:33:24.701Z,19.27
2022-10-17T05:38:32.226Z,18.60
2022-10-17T05:43:37.486Z,21.53
2022-10-17T05:48:43.878Z,21.60
2022-10-17T05:53:51.063Z,20.33
2022-10-17T05:59:00.730Z,19.23
2022-10-17T06:04:04.312Z,20.70
2022-10-17T06:09:09.616Z,18.53
2022-10-17T06:14:17.246Z,19.23
2022-10-17T06:19:22.510Z,19.10
2022-10-17T06:29:51.914Z,24.23
2022-10-17T06:34:59.946Z,21.67
2022-10-17T06:40:09.146Z,23.97
2022-10-17T06:45:33.734Z,20.90
2022-10-17T06:50:39.821Z,22.30
2022-10-17T06:55:46.771Z,21.70
2022-10-17T07:00:52.176Z,24.80
2022-10-17T07:05:58.933Z,22.07
2022-10-17T07:11:12.749Z,23.10
2022-10-17T07:16:20.908Z,21.17
2022-10-17T07:21:39.224Z,20.30
2022-10-17T07:26:44.089Z,19.80
2022-10-17T07:31:53.734Z,19.17
2022-10-17T07:37:10.753Z,20.20
2022-10-17T07:42:17.335Z,21.60
2022-10-17T07:47:30.383Z,20.50
2022-10-17T07:52:49.679Z,20.13
2022-10-17T07:57:55.220Z,21.97
2022-10-17T08:03:08.912Z,23.80
2022-10-17T08:08:17.029Z,19.47
2022-10-17T08:13:23.466Z,20.47
2022-10-17T08:18:31.487Z,20.40
2022-10-17T08:23:38.671Z,20.30
2022-10-17T08:28:44.362Z,19.67
2022-10-17T08:33:54.828Z,19.03
2022-10-17T08:39:04.861Z,18.83
2022-10-17T08:44:31.443Z,17.87
2022-10-17T08:49:56.428Z,18.23
2022-10-17T09:00:29.539Z,17.87
2022-10-17T09:05:48.122Z,17.17
2022-10-17T09:11:08.538Z,17.90
2022-10-17T09:16:32.336Z,17.23
2022-10-17T09:21:44.137Z,15.93
2022-10-17T09:32:38.690Z,16.03
2022-10-17T09:37:53.895Z,14.83
2022-10-17T09:43:03.019Z,14.70
2022-10-17T09:48:23.552Z,15.87
2022-10-17T09:53:31.823Z,15.27
2022-10-17T09:58:46.146Z,15.47
2022-10-17T10:04:15.197Z,15.47
2022-10-17T10:09:24.153Z,14.53
2022-10-17T10:20:30.984Z,14.83
2022-10-17T10:25:42.737Z,15.53
2022-10-17T10:30:59.932Z,15.50
2022-10-17T10:36:10.834Z,15.00
2022-10-17T10:47:22.377Z,14.85
2022-10-17T10:52:46.532Z,14.03
2022-10-17T10:57:55.172Z,15.32
2022-10-17T11:03:15.880Z,14.00
2022-10-17T11:08:36.647Z,14.83
2022-10-17T11:13:50.678Z,14.85
2022-10-17T11:19:32.303Z,15.00
2022-10-17T11:30:39.074Z,13.22
2022-10-17T11:35:53.418Z,11.73
2022-10-17T11:41:18.746Z,13.00
2022-10-17T11:46:45.698Z,15.15
2022-10-17T11:52:01.193Z,13.53
2022-10-17T11:57:44.032Z,14.58
2022-10-17T12:03:23.885Z,17.00
2022-10-17T12:08:57.834Z,16.97
2022-10-17T12:19:39.612Z,17.57
2022-10-17T12:24:51.369Z,17.27
2022-10-17T12:30:21.626Z,19.25
2022-10-17T12:35:29.932Z,18.00
2022-10-17T12:41:04.179Z,17.80
2022-10-17T12:46:37.447Z,18.30
2022-10-17T12:52:09.243Z,18.50
2022-10-17T12:57:26.714Z,17.90
2022-10-17T13:02:35.521Z,18.05
2022-10-17T13:07:50.076Z,18.20
2022-10-17T13:13:29.214Z,18.32
2022-10-17T13:18:43.736Z,17.98
2022-10-17T13:23:56.521Z,16.27
2022-10-17T13:29:06.752Z,16.83
2022-10-17T13:34:20.815Z,16.25
2022-10-17T13:39:44.997Z,15.28
2022-10-17T13:44:37.803Z,15.78
2022-10-17T13:49:45.243Z,15.63
2022-10-17T13:54:51.949Z,15.47
2022-10-17T14:00:00.060Z,14.30
2022-10-17T14:05:19.469Z,13.85
2022-10-17T14:10:26.839Z,13.53
2022-10-17T14:15:35.524Z,15.45
2022-10-17T14:21:19.751Z,13.72
2022-10-17T14:25:52.979Z,15.93
2022-10-17T14:36:48.941Z,16.70
2022-10-17T14:42:22.599Z,16.07
2022-10-17T14:47:43.697Z,15.75
2022-10-17T14:53:03.619Z,17.55
2022-10-17T14:58:22.123Z,16.40
2022-10-17T15:03:32.194Z,17.60
2022-10-17T15:08:40.687Z,18.53
2022-10-17T15:13:49.808Z,18.62
2022-10-17T15:19:15.703Z,18.53
2022-10-17T15:24:24.584Z,21.87
2022-10-17T15:29:32.620Z,25.23
2022-10-17T15:34:38.063Z,25.00
2022-10-17T15:39:43.300Z,26.27
2022-10-17T15:44:50.791Z,24.70
2022-10-17T15:50:09.001Z,31.20
2022-10-17T15:55:36.491Z,24.43
2022-10-17T16:00:43.364Z,20.60
2022-10-17T16:06:14.233Z,22.37
2022-10-17T16:11:39.909Z,24.20
2022-10-17T16:17:05.506Z,25.27
2022-10-17T16:22:36.979Z,27.27
2022-10-17T16:27:45.019Z,30.03
2022-10-17T16:32:59.188Z,25.83
2022-10-17T16:38:04.888Z,22.40
2022-10-17T16:43:15.717Z,23.30
2022-10-17T16:48:43.058Z,21.60
2022-10-17T16:53:54.102Z,25.53
2022-10-17T16:59:00.765Z,24.90
2022-10-17T17:04:17.775Z,37.33
2022-10-17T17:09:30.915Z,28.63
2022-10-17T17:14:46.672Z,28.97
2022-10-17T17:19:53.042Z,27.30
2022-10-17T17:25:01.436Z,35.00
2022-10-17T17:30:10.838Z,38.47
2022-10-17T17:35:18.731Z,31.70
2022-10-17T17:40:24.585Z,28.97
2022-10-17T17:45:31.325Z,24.43
2022-10-17T17:50:42.854Z,27.67
2022-10-17T17:55:50.829Z,33.27
2022-10-17T18:00:57.607Z,31.43
2022-10-17T18:06:22.913Z,28.60
2022-10-17T18:11:28.776Z,28.60
2022-10-17T18:16:36.283Z,29.97
2022-10-17T18:21:44.547Z,30.70
2022-10-17T18:26:54.085Z,29.77
2022-10-17T18:31:59.488Z,24.77
2022-10-17T18:37:05.086Z,26.07
2022-10-17T18:42:12.462Z,29.07
2022-10-17T18:47:20.688Z,25.80
2022-10-17T18:52:27.809Z,26.47
2022-10-17T18:57:33.134Z,25.13
2022-10-17T19:02:41.692Z,31.37
2022-10-17T19:07:50.110Z,39.50
2022-10-17T19:12:59.118Z,35.83
2022-10-17T19:18:07.340Z,35.23
2022-10-17T19:23:17.100Z,33.33
2022-10-17T19:28:26.280Z,29.27
2022-10-17T19:33:34.766Z,27.93
2022-10-17T19:38:44.138Z,28.77
2022-10-17T19:43:52.683Z,28.83
2022-10-17T19:49:02.755Z,27.47
2022-10-17T19:54:08.000Z,33.40
2022-10-17T19:59:32.511Z,31.93
2022-10-17T20:05:00.208Z,29.57
2022-10-17T20:09:59.014Z,31.23
2022-10-17T20:15:06.617Z,27.57
2022-10-17T20:20:13.341Z,25.67
2022-10-17T20:25:21.826Z,25.37
2022-10-17T20:30:32.009Z,25.60
2022-10-17T20:35:42.518Z,36.53
2022-10-17T20:40:51.334Z,32.00
2022-10-17T20:46:04.601Z,29.13
2022-10-17T20:51:12.025Z,36.43
2022-10-17T20:56:23.325Z,40.97
2022-10-17T21:01:35.143Z,59.90
2022-10-17T21:07:01.515Z,43.10
2022-10-17T21:12:07.034Z,41.67
2022-10-17T21:17:12.247Z,33.93
2022-10-17T21:22:18.414Z,37.07
2022-10-17T21:27:42.977Z,38.13
2022-10-17T21:32:53.409Z,37.80
2022-10-17T21:37:59.437Z,37.03
2022-10-17T21:43:08.428Z,40.90
2022-10-17T21:48:16.847Z,35.37
2022-10-17T21:53:23.888Z,33.50
2022-10-17T21:58:30.493Z,37.43
2022-10-17T22:03:44.211Z,32.53
2022-10-17T22:08:55.130Z,32.47
2022-10-17T22:14:09.553Z,32.93
2022-10-17T22:19:38.272Z,29.60
2022-10-17T22:24:47.335Z,30.20
2022-10-17T22:29:52.495Z,29.93
2022-10-17T22:34:58.202Z,33.37
2022-10-17T22:40:06.698Z,34.43
2022-10-17T22:45:14.883Z,32.70
2022-10-17T22:50:22.024Z,28.30
2022-10-17T22:55:28.989Z,29.90
2022-10-17T23:00:34.208Z,29.10
2022-10-17T23:05:40.876Z,31.70
2022-10-17T23:11:05.535Z,28.77
2022-10-17T23:16:11.127Z,31.47
2022-10-17T23:21:17.504Z,28.97
2022-10-17T23:26:22.630Z,28.90
2022-10-17T23:31:30.340Z,27.70
2022-10-17T23:36:38.935Z,28.30
2022-10-17T23:41:45.745Z,26.20
2022-10-17T23:46:57.048Z,24.67
2022-10-17T23:52:04.798Z,27.47
2022-10-17T23:57:10.694Z,26.23
